createdAt,value
2019-05-19T00:00:12.995Z,99364.66
2019-05-19T00:01:49.441Z,99370.54
2019-05-19T00:03:25.004Z,99369.80
2019-05-19T00:05:02.338Z,99367.30
2019-05-19T00:06:38.217Z,99365.10
2019-05-19T00:08:14.898Z,99364.35
2019-05-19T00:09:50.421Z,99363.25
2019-05-19T00:11:27.668Z,99366.41
2019-05-19T00:13:04.205Z,99366.16
2019-05-19T00:14:40.803Z,99373.42
2019-05-19T00:16:16.327Z,99371.60
2019-05-19T00:17:52.603Z,99371.92
2019-05-19T00:19:28.147Z,99370.59
2019-05-19T00:21:04.407Z,99373.92
2019-05-19T00:22:39.937Z,99370.39
2019-05-19T00:24:16.231Z,99371.25
2019-05-19T00:25:51.808Z,99372.97
2019-05-19T00:27:28.085Z,99372.44
2019-05-19T00:29:03.926Z,99376.67
2019-05-19T00:30:40.207Z,99377.53
2019-05-19T00:32:15.731Z,99378.08
2019-05-19T00:33:52.089Z,99378.98
2019-05-19T00:35:27.703Z,99367.11
2019-05-19T00:37:04.074Z,99371.83
2019-05-19T00:38:39.604Z,99367.98
2019-05-19T00:40:15.999Z,99367.17
2019-05-19T00:41:51.830Z,99365.52
2019-05-19T00:43:28.115Z,99363.86
2019-05-19T00:45:05.854Z,99360.82
2019-05-19T00:46:42.405Z,99367.77
2019-05-19T00:48:17.904Z,99362.53
2019-05-19T00:49:54.198Z,99364.30
2019-05-19T00:51:30.023Z,99366.81
2019-05-19T00:53:06.295Z,99368.78
2019-05-19T00:54:41.827Z,99369.06
2019-05-19T00:56:19.135Z,99358.53
2019-05-19T00:57:55.216Z,99357.45
2019-05-19T00:59:32.226Z,99359.97
2019-05-19T01:01:07.873Z,99363.65
2019-05-19T01:02:45.698Z,99362.55
2019-05-19T01:04:21.178Z,99359.53
2019-05-19T01:05:57.466Z,99362.59
2019-05-19T01:07:33.007Z,99352.38
2019-05-19T01:09:09.378Z,99358.54
2019-05-19T01:10:45.329Z,99358.59
2019-05-19T01:12:21.701Z,99362.81
2019-05-19T01:13:57.823Z,99365.09
2019-05-19T01:15:35.687Z,99366.53
2019-05-19T01:17:11.253Z,99367.17
2019-05-19T01:18:47.547Z,99356.34
2019-05-19T01:20:23.708Z,99361.66
2019-05-19T01:22:03.230Z,99363.86
2019-05-19T01:23:38.771Z,99364.72
2019-05-19T01:25:16.828Z,99364.72
2019-05-19T01:26:52.362Z,99367.27
2019-05-19T01:28:29.618Z,99369.20
2019-05-19T01:30:10.534Z,99373.69
2019-05-19T01:31:46.807Z,99368.45
2019-05-19T01:33:22.374Z,99364.59
2019-05-19T01:34:58.693Z,99362.36
2019-05-19T01:36:34.471Z,99355.73
2019-05-19T01:38:11.041Z,99361.03
2019-05-19T01:39:46.624Z,99358.30
2019-05-19T01:41:23.145Z,99355.58
2019-05-19T01:42:58.669Z,99356.70
2019-05-19T01:44:34.936Z,99358.14
2019-05-19T01:46:10.468Z,99357.38
2019-05-19T01:47:46.784Z,99352.72
2019-05-19T01:49:22.324Z,99354.39
2019-05-19T01:50:58.582Z,99348.08
2019-05-19T01:52:34.124Z,99352.60
2019-05-19T01:54:10.664Z,99344.32
2019-05-19T01:55:49.432Z,99349.03
2019-05-19T01:57:25.707Z,99340.52
2019-05-19T01:59:01.225Z,99336.14
2019-05-19T02:00:37.499Z,99340.61
2019-05-19T02:02:14.115Z,99333.15
2019-05-19T02:03:50.631Z,99336.23
2019-05-19T02:05:26.173Z,99332.93
2019-05-19T02:07:02.512Z,99335.98
2019-05-19T02:08:38.052Z,99336.30
2019-05-19T02:10:14.497Z,99334.38
2019-05-19T02:11:50.028Z,99341.90
2019-05-19T02:13:26.321Z,99329.77
2019-05-19T02:15:02.298Z,99338.69
2019-05-19T02:16:40.145Z,99330.98
2019-05-19T02:18:16.840Z,99325.48
2019-05-19T02:19:53.376Z,99327.19
2019-05-19T02:21:28.904Z,99334.73
2019-05-19T02:23:05.189Z,99332.24
2019-05-19T02:24:41.692Z,99326.74
2019-05-19T02:26:17.969Z,99328.75
2019-05-19T02:27:53.787Z,99326.02
2019-05-19T02:29:30.345Z,99326.33
2019-05-19T02:31:05.876Z,99326.92
2019-05-19T02:32:42.389Z,99330.31
2019-05-19T02:34:17.930Z,99335.05
2019-05-19T02:35:54.186Z,99330.93
2019-05-19T02:37:29.996Z,99324.59
2019-05-19T02:39:08.067Z,99329.06
2019-05-19T02:40:50.860Z,99330.75
2019-05-19T02:42:30.297Z,99330.75
2019-05-19T02:44:07.167Z,99326.90
2019-05-19T02:45:43.561Z,99326.63
2019-05-19T02:47:21.646Z,99329.14
2019-05-19T02:48:59.916Z,99324.44
2019-05-19T02:50:51.839Z,99324.72
2019-05-19T02:52:17.139Z,99323.09
2019-05-19T02:53:52.816Z,99330.87
2019-05-19T02:55:30.740Z,99335.61
2019-05-19T02:57:06.804Z,99334.23
2019-05-19T02:58:43.555Z,99332.57
2019-05-19T03:00:22.636Z,99326.49
2019-05-19T03:02:02.771Z,99330.66
2019-05-19T03:03:39.044Z,99329.03
2019-05-19T03:05:15.610Z,99327.38
2019-05-19T03:06:51.925Z,99327.92
2019-05-19T03:08:28.430Z,99332.08
2019-05-19T03:10:05.555Z,99326.84
2019-05-19T03:11:41.089Z,99331.58
2019-05-19T03:13:17.382Z,99324.95
2019-05-19T03:14:53.224Z,99324.11
2019-05-19T03:16:29.488Z,99328.58
2019-05-19T03:18:05.097Z,99323.61
2019-05-19T03:19:41.376Z,99323.88
2019-05-19T03:21:16.911Z,99324.46
2019-05-19T03:22:54.887Z,99327.81
2019-05-19T03:24:30.439Z,99329.20
2019-05-19T03:26:06.934Z,99322.81
2019-05-19T03:27:42.473Z,99327.27
2019-05-19T03:29:19.659Z,99329.51
2019-05-19T03:30:59.783Z,99327.05
2019-05-19T03:32:36.954Z,99333.16
2019-05-19T03:34:14.081Z,99333.70
2019-05-19T03:35:50.354Z,99332.13
2019-05-19T03:37:26.669Z,99331.28
2019-05-19T03:39:02.968Z,99336.83
2019-05-19T03:40:38.574Z,99331.28
2019-05-19T03:42:14.862Z,99336.52
2019-05-19T03:43:50.396Z,99334.59
2019-05-19T03:45:26.688Z,99327.89
2019-05-19T03:47:02.286Z,99328.66
2019-05-19T03:48:39.700Z,99331.39
2019-05-19T03:50:15.788Z,99329.11
2019-05-19T03:51:52.231Z,99325.15
2019-05-19T03:53:28.057Z,99328.41
2019-05-19T03:55:05.162Z,99328.33
2019-05-19T03:56:40.718Z,99331.02
2019-05-19T03:58:17.295Z,99328.42
2019-05-19T03:59:52.836Z,99328.03
2019-05-19T04:01:29.390Z,99320.73
2019-05-19T04:03:04.934Z,99326.42
2019-05-19T04:04:41.231Z,99333.80
2019-05-19T04:06:16.730Z,99329.55
2019-05-19T04:07:53.036Z,99333.41
2019-05-19T04:09:28.653Z,99328.64
2019-05-19T04:11:04.915Z,99333.27
2019-05-19T04:12:40.458Z,99335.16
2019-05-19T04:14:17.980Z,99336.77
2019-05-19T04:15:53.539Z,99340.80
2019-05-19T04:17:29.805Z,99341.28
2019-05-19T04:19:05.355Z,99334.51
2019-05-19T04:20:43.513Z,99343.00
2019-05-19T04:22:19.035Z,99339.50
2019-05-19T04:23:55.307Z,99345.16
2019-05-19T04:25:33.701Z,99343.30
2019-05-19T04:27:10.011Z,99341.98
2019-05-19T04:28:45.556Z,99344.54
2019-05-19T04:30:21.971Z,99344.05
2019-05-19T04:31:58.332Z,99344.94
2019-05-19T04:33:34.646Z,99351.94
2019-05-19T04:35:10.333Z,99347.56
2019-05-19T04:36:46.614Z,99351.76
2019-05-19T04:38:22.176Z,99350.39
2019-05-19T04:39:58.721Z,99349.75
2019-05-19T04:41:34.232Z,99344.69
2019-05-19T04:43:10.514Z,99349.92
2019-05-19T04:44:46.065Z,99350.41
2019-05-19T04:46:22.342Z,99346.73
2019-05-19T04:47:57.883Z,99341.98
2019-05-19T04:49:34.157Z,99349.66
2019-05-19T04:51:09.703Z,99345.92
2019-05-19T04:52:45.975Z,99348.60
2019-05-19T04:54:21.523Z,99338.44
2019-05-19T04:55:57.775Z,99341.09
2019-05-19T04:57:33.300Z,99339.09
2019-05-19T04:59:09.578Z,99341.73
2019-05-19T05:00:46.808Z,99345.19
2019-05-19T05:02:23.079Z,99346.09
2019-05-19T05:03:59.786Z,99343.69
2019-05-19T05:05:39.105Z,99341.53
2019-05-19T05:07:14.676Z,99340.84
2019-05-19T05:08:50.979Z,99343.91
2019-05-19T05:10:26.645Z,99345.08
2019-05-19T05:12:02.954Z,99347.28
2019-05-19T05:13:38.757Z,99335.63
2019-05-19T05:15:15.087Z,99333.20
2019-05-19T05:16:52.104Z,99331.80
2019-05-19T05:18:28.377Z,99329.95
2019-05-19T05:20:06.218Z,99334.14
2019-05-19T05:21:42.503Z,99332.37
2019-05-19T05:23:18.285Z,99334.31
2019-05-19T05:24:54.869Z,99333.69
2019-05-19T05:26:30.381Z,99339.82
2019-05-19T05:28:06.983Z,99338.27
2019-05-19T05:29:42.607Z,99336.34
2019-05-19T05:31:18.913Z,99334.02
2019-05-19T05:32:54.474Z,99332.54
2019-05-19T05:34:31.701Z,99335.35
2019-05-19T05:36:07.248Z,99332.34
2019-05-19T05:37:43.503Z,99339.83
2019-05-19T05:39:19.056Z,99329.84
2019-05-19T05:40:55.316Z,99335.67
2019-05-19T05:42:31.937Z,99329.84
2019-05-19T05:44:08.461Z,99329.61
2019-05-19T05:45:46.184Z,99321.76
2019-05-19T05:47:22.452Z,99325.93
2019-05-19T05:48:58.235Z,99325.70
2019-05-19T05:50:34.787Z,99329.99
2019-05-19T05:52:10.325Z,99329.63
2019-05-19T05:53:46.627Z,99333.69
2019-05-19T05:55:22.174Z,99321.28
2019-05-19T05:56:58.465Z,99327.09
2019-05-19T05:58:35.111Z,99323.09
2019-05-19T06:00:12.108Z,99321.87
2019-05-19T06:01:47.783Z,99322.28
2019-05-19T06:03:25.018Z,99326.73
2019-05-19T06:05:00.565Z,99327.62
2019-05-19T06:06:36.824Z,99326.59
2019-05-19T06:08:12.444Z,99324.95
2019-05-19T06:09:48.712Z,99328.16
2019-05-19T06:11:24.250Z,99331.89
2019-05-19T06:13:00.575Z,99335.31
2019-05-19T06:14:36.112Z,99324.39
2019-05-19T06:16:12.661Z,99329.83
2019-05-19T06:17:48.188Z,99338.02
2019-05-19T06:19:24.528Z,99332.64
2019-05-19T06:21:00.035Z,99334.79
2019-05-19T06:22:36.309Z,99327.08
2019-05-19T06:24:11.861Z,99321.61
2019-05-19T06:25:49.793Z,99325.77
2019-05-19T06:27:25.311Z,99318.70
2019-05-19T06:29:01.571Z,99324.12
2019-05-19T06:30:40.214Z,99328.84
2019-05-19T06:32:17.398Z,99319.52
2019-05-19T06:33:53.949Z,99324.61
2019-05-19T06:35:29.567Z,99323.58
2019-05-19T06:37:05.848Z,99322.59
2019-05-19T06:38:41.420Z,99323.15
2019-05-19T06:40:18.792Z,99315.28
2019-05-19T06:41:58.212Z,99326.50
2019-05-19T06:43:34.492Z,99330.87
2019-05-19T06:45:12.704Z,99323.44
2019-05-19T06:46:49.028Z,99321.64
2019-05-19T06:48:24.557Z,99325.33
2019-05-19T06:50:00.817Z,99315.91
2019-05-19T06:51:36.973Z,99328.51
2019-05-19T06:53:14.556Z,99321.30
2019-05-19T06:54:50.443Z,99319.53
2019-05-19T06:56:27.054Z,99314.69
2019-05-19T06:58:02.669Z,99308.09
2019-05-19T06:59:39.013Z,99309.52
2019-05-19T07:01:14.557Z,99303.95
2019-05-19T07:02:50.810Z,99309.48
2019-05-19T07:04:26.352Z,99310.19
2019-05-19T07:06:02.866Z,99308.83
2019-05-19T07:07:38.455Z,99309.86
2019-05-19T07:09:14.805Z,99308.89
2019-05-19T07:10:50.338Z,99304.49
2019-05-19T07:12:26.618Z,99308.98
2019-05-19T07:14:03.122Z,99305.19
2019-05-19T07:15:39.531Z,99290.73
2019-05-19T07:17:16.682Z,99297.80
2019-05-19T07:18:53.601Z,99296.24
2019-05-19T07:20:34.021Z,99301.36
2019-05-19T07:22:10.540Z,99299.45
2019-05-19T07:23:46.064Z,99302.98
2019-05-19T07:25:22.334Z,99303.67
2019-05-19T07:27:00.601Z,99302.09
2019-05-19T07:28:36.858Z,99293.84
2019-05-19T07:30:12.517Z,99295.66
2019-05-19T07:31:48.830Z,99292.88
2019-05-19T07:33:24.335Z,99289.11
2019-05-19T07:35:00.644Z,99286.78
2019-05-19T07:36:36.208Z,99291.17
2019-05-19T07:38:12.656Z,99293.59
2019-05-19T07:39:48.182Z,99288.47
2019-05-19T07:41:24.459Z,99288.73
2019-05-19T07:43:00.024Z,99292.41
2019-05-19T07:44:36.331Z,99285.37
2019-05-19T07:46:11.903Z,99288.86
2019-05-19T07:47:48.161Z,99287.70
2019-05-19T07:49:23.740Z,99287.38
2019-05-19T07:51:00.370Z,99285.59
2019-05-19T07:52:35.973Z,99285.23
2019-05-19T07:54:12.236Z,99289.29
2019-05-19T07:55:50.589Z,99282.25
2019-05-19T07:57:26.949Z,99286.34
2019-05-19T07:59:02.634Z,99278.73
2019-05-19T08:00:41.090Z,99280.21
2019-05-19T08:02:16.684Z,99285.34
2019-05-19T08:03:52.959Z,99278.06
2019-05-19T08:05:28.493Z,99283.41
2019-05-19T08:07:04.771Z,99279.98
2019-05-19T08:08:41.545Z,99277.20
2019-05-19T08:10:17.905Z,99278.63
2019-05-19T08:11:53.444Z,99275.43
2019-05-19T08:13:29.802Z,99264.94
2019-05-19T08:15:09.932Z,99266.56
2019-05-19T08:16:46.219Z,99266.37
2019-05-19T08:18:21.819Z,99265.78
2019-05-19T08:19:58.068Z,99265.21
2019-05-19T08:21:33.608Z,99269.50
2019-05-19T08:23:09.871Z,99272.34
2019-05-19T08:24:45.651Z,99259.19
2019-05-19T08:26:21.921Z,99267.30
2019-05-19T08:28:07.609Z,99253.94
2019-05-19T08:29:35.422Z,99265.52
2019-05-19T08:31:10.958Z,99255.58
2019-05-19T08:32:47.248Z,99253.52
2019-05-19T08:34:22.901Z,99251.69
2019-05-19T08:35:59.428Z,99252.89
2019-05-19T08:37:34.937Z,99251.41
2019-05-19T08:39:11.492Z,99261.72
2019-05-19T08:40:47.993Z,99247.67
2019-05-19T08:42:24.218Z,99254.35
2019-05-19T08:44:00.000Z,99250.10
2019-05-19T08:45:39.643Z,99246.67
2019-05-19T08:47:16.036Z,99244.04
2019-05-19T08:48:51.563Z,99245.89
2019-05-19T08:50:28.779Z,99248.30
2019-05-19T08:52:04.255Z,99239.30
2019-05-19T08:53:40.518Z,99245.94
2019-05-19T08:55:17.094Z,99242.42
2019-05-19T08:56:53.598Z,99262.13
2019-05-19T08:58:29.111Z,99241.86
2019-05-19T09:00:08.896Z,99235.97
2019-05-19T09:01:45.203Z,99242.27
2019-05-19T09:03:21.474Z,99233.34
2019-05-19T09:04:57.272Z,99239.05
2019-05-19T09:06:33.522Z,99238.05
2019-05-19T09:08:09.063Z,99241.55
2019-05-19T09:09:45.323Z,99236.52
2019-05-19T09:11:20.873Z,99254.80
2019-05-19T09:12:57.142Z,99246.73
2019-05-19T09:14:32.664Z,99255.47
2019-05-19T09:16:08.923Z,99238.66
2019-05-19T09:17:44.472Z,99240.48
2019-05-19T09:19:21.036Z,99229.07
2019-05-19T09:20:56.915Z,99237.95
2019-05-19T09:22:33.140Z,99234.66
2019-05-19T09:24:08.742Z,99229.52
2019-05-19T09:25:45.020Z,99235.68
2019-05-19T09:27:20.544Z,99227.43
2019-05-19T09:28:56.819Z,99231.17
2019-05-19T09:30:39.806Z,99229.74
2019-05-19T09:32:14.577Z,99225.88
2019-05-19T09:33:50.127Z,99226.45
2019-05-19T09:35:26.406Z,99227.01
2019-05-19T09:37:01.957Z,99219.38
2019-05-19T09:38:38.538Z,99216.77
2019-05-19T09:40:15.712Z,99219.03
2019-05-19T09:41:52.268Z,99224.77
2019-05-19T09:43:28.815Z,99218.77
2019-05-19T09:45:07.637Z,99217.96
2019-05-19T09:46:43.173Z,99222.21
2019-05-19T09:48:19.759Z,99218.13
2019-05-19T09:49:55.536Z,99218.00
2019-05-19T09:51:31.806Z,99222.39
2019-05-19T09:53:07.352Z,99224.06
2019-05-19T09:54:45.626Z,99219.28
2019-05-19T09:56:20.863Z,99213.75
2019-05-19T09:57:57.174Z,99211.78
2019-05-19T09:59:32.687Z,99217.94
2019-05-19T10:01:11.775Z,99214.45
2019-05-19T10:02:48.524Z,99212.90
2019-05-19T10:04:24.813Z,99210.45
2019-05-19T10:06:00.365Z,99200.55
2019-05-19T10:07:36.672Z,99207.66
2019-05-19T10:09:21.109Z,99205.90
2019-05-19T10:11:06.913Z,99201.48
2019-05-19T10:12:43.197Z,99200.70
2019-05-19T10:14:20.148Z,99221.34
2019-05-19T10:15:56.399Z,99208.92
2019-05-19T10:17:31.996Z,99204.31
2019-05-19T10:19:08.264Z,99205.83
2019-05-19T10:20:43.761Z,99206.48
2019-05-19T10:22:22.887Z,99206.66
2019-05-19T10:23:58.394Z,99195.94
2019-05-19T10:25:34.883Z,99196.45
2019-05-19T10:27:10.393Z,99195.77
2019-05-19T10:28:46.653Z,99194.48
2019-05-19T10:30:22.525Z,99208.22
2019-05-19T10:31:58.851Z,99213.07
2019-05-19T10:33:35.345Z,99198.88
2019-05-19T10:35:11.743Z,99196.47
2019-05-19T10:36:47.691Z,99191.20
2019-05-19T10:38:24.277Z,99199.09
2019-05-19T10:39:59.805Z,99194.33
2019-05-19T10:41:36.127Z,99194.27
2019-05-19T10:43:11.665Z,99193.36
2019-05-19T10:44:47.913Z,99191.84
2019-05-19T10:46:23.429Z,99195.34
2019-05-19T10:47:59.670Z,99200.51
2019-05-19T10:49:35.207Z,99194.70
2019-05-19T10:51:11.466Z,99191.39
2019-05-19T10:52:46.985Z,99193.02
2019-05-19T10:54:23.239Z,99191.34
2019-05-19T10:55:58.759Z,99198.06
2019-05-19T10:57:35.006Z,99186.91
2019-05-19T10:59:10.788Z,99188.20
2019-05-19T11:00:48.053Z,99194.48
2019-05-19T11:02:23.814Z,99185.46
2019-05-19T11:04:00.083Z,99188.50
2019-05-19T11:05:35.600Z,99194.31
2019-05-19T11:07:14.942Z,99183.88
2019-05-19T11:27:44.079Z,99161.89
2019-05-19T11:29:21.319Z,99169.37
2019-05-19T11:30:56.846Z,99162.77
2019-05-19T11:32:33.114Z,99163.14
2019-05-19T11:34:08.927Z,99155.03
2019-05-19T11:35:45.324Z,99158.11
2019-05-19T11:37:20.847Z,99155.17
2019-05-19T11:38:57.131Z,99155.07
2019-05-19T11:40:33.597Z,99155.30
2019-05-19T11:42:10.148Z,99150.20
2019-05-19T11:43:45.666Z,99149.41
2019-05-19T11:45:21.933Z,99146.40
2019-05-19T11:46:57.443Z,99154.41
2019-05-19T11:48:33.709Z,99154.96
2019-05-19T11:50:09.516Z,99151.61
2019-05-19T11:51:45.781Z,99163.10
2019-05-19T11:53:21.304Z,99153.42
2019-05-19T11:54:57.810Z,99155.94
2019-05-19T11:56:33.323Z,99154.39
2019-05-19T11:58:09.577Z,99146.95
2019-05-19T11:59:45.110Z,99152.91
2019-05-19T12:01:22.339Z,99151.14
2019-05-19T12:02:58.108Z,99145.53
2019-05-19T12:04:34.376Z,99156.73
2019-05-19T12:06:09.892Z,99146.04
2019-05-19T12:07:46.193Z,99144.27
2019-05-19T12:09:21.796Z,99140.66
2019-05-19T12:10:58.055Z,99143.09
2019-05-19T12:12:33.901Z,99143.66
2019-05-19T12:14:10.157Z,99145.43
2019-05-19T12:15:45.997Z,99149.88
2019-05-19T12:17:22.342Z,99149.02
2019-05-19T12:18:58.110Z,99147.34
2019-05-19T12:20:34.376Z,99143.89
2019-05-19T12:22:09.904Z,99147.70
2019-05-19T12:23:46.156Z,99143.23
2019-05-19T12:25:21.693Z,99141.58
2019-05-19T12:26:57.960Z,99149.02
2019-05-19T12:28:33.517Z,99146.66
2019-05-19T12:30:10.092Z,99149.36
2019-05-19T12:31:45.875Z,99139.91
2019-05-19T12:33:22.196Z,99143.05
2019-05-19T12:34:57.730Z,99137.00
2019-05-19T12:36:33.977Z,99136.94
2019-05-19T12:38:09.489Z,99139.58
2019-05-19T12:39:45.796Z,99139.66
2019-05-19T12:41:21.318Z,99131.61
2019-05-19T12:42:57.578Z,99130.63
2019-05-19T12:44:33.096Z,99139.29
2019-05-19T12:46:16.168Z,99136.47
2019-05-19T12:47:46.606Z,99139.48
2019-05-19T12:49:22.925Z,99134.11
2019-05-19T12:50:58.449Z,99131.61
2019-05-19T12:52:34.692Z,99130.38
2019-05-19T12:54:10.218Z,99125.62
2019-05-19T12:55:46.487Z,99126.22
2019-05-19T12:57:22.006Z,99124.39
2019-05-19T12:58:59.044Z,99121.59
2019-05-19T13:00:34.575Z,99123.98
2019-05-19T13:02:10.829Z,99122.97
2019-05-19T13:03:46.350Z,99118.70
2019-05-19T13:05:22.609Z,99115.66
2019-05-19T13:06:58.443Z,99119.41
2019-05-19T13:08:34.705Z,99118.57
2019-05-19T13:10:10.770Z,99114.11
2019-05-19T13:11:47.025Z,99113.46
2019-05-19T13:13:22.555Z,99118.05
2019-05-19T13:14:58.819Z,99118.25
2019-05-19T13:16:35.082Z,99117.31
2019-05-19T13:18:15.493Z,99113.36
2019-05-19T13:19:53.714Z,99110.21
2019-05-19T13:21:30.998Z,99104.08
2019-05-19T13:23:06.810Z,99100.59
2019-05-19T13:24:43.098Z,99102.84
2019-05-19T13:26:18.898Z,99101.44
2019-05-19T13:27:55.419Z,99103.78
2019-05-19T13:29:30.950Z,99101.80
2019-05-19T13:31:07.306Z,99103.42
2019-05-19T13:32:42.822Z,99092.44
2019-05-19T13:34:19.131Z,99093.23
2019-05-19T13:35:54.659Z,99092.58
2019-05-19T13:37:31.224Z,99094.89
2019-05-19T13:39:08.107Z,99095.25
2019-05-19T13:40:44.430Z,99104.16
2019-05-19T13:42:19.959Z,99098.02
2019-05-19T13:43:59.449Z,99093.49
2019-05-19T13:45:33.702Z,99100.69
2019-05-19T13:47:09.963Z,99093.53
2019-05-19T13:48:45.481Z,99097.66
2019-05-19T13:50:21.736Z,99095.95
2019-05-19T13:51:57.253Z,99097.70
2019-05-19T13:53:33.514Z,99094.37
2019-05-19T13:55:09.105Z,99092.02
2019-05-19T13:56:45.361Z,99095.58
2019-05-19T13:58:20.890Z,99093.45
2019-05-19T13:59:57.164Z,99092.94
2019-05-19T14:01:32.947Z,99090.30
2019-05-19T14:03:09.239Z,99092.65
2019-05-19T14:04:44.721Z,99086.59
2019-05-19T14:06:21.002Z,99084.85
2019-05-19T14:07:56.772Z,99082.60
2019-05-19T14:09:33.030Z,99073.69
2019-05-19T14:11:08.793Z,99074.38
2019-05-19T14:12:45.048Z,99068.12
2019-05-19T14:14:20.555Z,99067.50
2019-05-19T14:15:56.822Z,99064.84
2019-05-19T14:17:32.346Z,99067.28
2019-05-19T14:19:08.607Z,99057.98
2019-05-19T14:20:44.116Z,99064.55
2019-05-19T14:22:20.380Z,99051.75
2019-05-19T14:23:55.935Z,99053.61
2019-05-19T14:25:32.163Z,99044.28
2019-05-19T14:27:07.690Z,99048.91
2019-05-19T14:28:43.965Z,99046.81
2019-05-19T14:30:19.824Z,99035.50
2019-05-19T14:31:56.151Z,99042.23
2019-05-19T14:33:31.838Z,99038.42
2019-05-19T14:35:09.010Z,99033.59
2019-05-19T14:36:44.536Z,99031.98
2019-05-19T14:38:20.783Z,99031.61
2019-05-19T14:39:56.560Z,99035.25
2019-05-19T14:41:34.784Z,99037.47
2019-05-19T14:43:10.562Z,99034.82
2019-05-19T14:44:46.812Z,99035.25
2019-05-19T14:46:22.349Z,99024.10
2019-05-19T14:47:58.841Z,99031.64
2019-05-19T14:49:34.355Z,99030.49
2019-05-19T14:51:10.628Z,99036.45
2019-05-19T14:52:46.156Z,99037.17
2019-05-19T14:54:22.455Z,99044.16
2019-05-19T14:55:58.193Z,99036.50
2019-05-19T14:57:44.482Z,99036.59
2019-05-19T14:59:11.655Z,99054.16
2019-05-19T15:00:48.973Z,99035.82
2019-05-19T15:02:24.481Z,99034.89
2019-05-19T15:04:00.737Z,99033.97
2019-05-19T15:05:36.253Z,99032.44
2019-05-19T15:07:12.512Z,99028.69
2019-05-19T15:08:48.022Z,99043.16
2019-05-19T15:10:24.461Z,99039.36
2019-05-19T15:11:59.990Z,99032.13
2019-05-19T15:13:36.238Z,99036.24
2019-05-19T15:15:12.211Z,99024.92
2019-05-19T15:16:48.464Z,99031.23
2019-05-19T15:18:23.971Z,99025.37
2019-05-19T15:20:00.243Z,99019.33
2019-05-19T15:21:35.761Z,99018.55
2019-05-19T15:23:12.378Z,99007.63
2019-05-19T15:24:47.884Z,99017.34
2019-05-19T15:26:24.144Z,99021.42
2019-05-19T15:28:02.754Z,99016.38
2019-05-19T15:29:37.622Z,99005.25
2019-05-19T15:31:13.132Z,99006.67
2019-05-19T15:32:49.496Z,99005.87
2019-05-19T15:34:25.370Z,99012.75
2019-05-19T15:36:01.623Z,99005.25
2019-05-19T15:37:37.145Z,99015.58
2019-05-19T15:39:14.612Z,99012.53
2019-05-19T15:40:50.517Z,99002.65
2019-05-19T15:42:26.785Z,99005.48
2019-05-19T15:44:02.419Z,99001.22
2019-05-19T15:45:38.704Z,98999.01
2019-05-19T15:47:14.223Z,98998.59
2019-05-19T15:48:50.479Z,98998.41
2019-05-19T15:50:25.996Z,99000.63
2019-05-19T15:52:04.749Z,99001.44
2019-05-19T15:53:39.831Z,99003.88
2019-05-19T15:55:16.290Z,98993.55
2019-05-19T15:56:52.797Z,98992.75
2019-05-19T15:58:29.337Z,98998.20
2019-05-19T16:00:09.360Z,98995.37
2019-05-19T16:01:45.867Z,98999.20
2019-05-19T16:03:21.406Z,98995.78
2019-05-19T16:04:57.661Z,98996.00
2019-05-19T16:06:33.185Z,98995.78
2019-05-19T16:08:09.499Z,98997.41
2019-05-19T16:09:45.236Z,98992.55
2019-05-19T16:11:21.501Z,98991.92
2019-05-19T16:12:57.275Z,98993.34
2019-05-19T16:14:33.778Z,98982.02
2019-05-19T16:16:09.302Z,98989.71
2019-05-19T16:17:45.582Z,98984.45
2019-05-19T16:19:21.104Z,98990.13
2019-05-19T16:20:57.427Z,98991.12
2019-05-19T16:22:32.945Z,98993.16
2019-05-19T16:24:09.473Z,98987.28
2019-05-19T16:25:44.994Z,98987.08
2019-05-19T16:27:21.509Z,98986.28
2019-05-19T16:28:57.307Z,98983.83
2019-05-19T16:30:33.802Z,98981.63
2019-05-19T16:32:09.325Z,98981.42
2019-05-19T16:33:45.615Z,98988.51
2019-05-19T16:35:21.141Z,98988.09
2019-05-19T16:36:57.392Z,98988.89
2019-05-19T16:38:32.990Z,98985.67
2019-05-19T16:40:09.976Z,98989.70
2019-05-19T16:41:45.503Z,98986.69
2019-05-19T16:43:21.777Z,98983.64
2019-05-19T16:44:57.303Z,98984.22
2019-05-19T16:46:33.956Z,98985.23
2019-05-19T16:48:09.481Z,98983.20
2019-05-19T16:49:45.745Z,98982.17
2019-05-19T16:51:21.259Z,98980.55
2019-05-19T16:52:57.534Z,98984.98
2019-05-19T16:54:37.355Z,98983.53
2019-05-19T16:56:13.598Z,98987.16
2019-05-19T16:57:49.112Z,98984.47
2019-05-19T16:59:25.405Z,98989.11
2019-05-19T17:01:00.913Z,98988.29
2019-05-19T17:02:37.166Z,98987.69
2019-05-19T17:04:12.682Z,98989.48
2019-05-19T17:05:48.941Z,98991.89
2019-05-19T17:07:24.713Z,98986.00
2019-05-19T17:09:00.980Z,98989.00
2019-05-19T17:10:38.277Z,98989.38
2019-05-19T17:12:14.528Z,98984.10
2019-05-19T17:13:50.235Z,98988.33
2019-05-19T17:15:26.497Z,98987.08
2019-05-19T17:17:02.004Z,98983.58
2019-05-19T17:18:38.272Z,98990.59
2019-05-19T17:20:17.095Z,98986.32
2019-05-19T17:21:53.352Z,98987.67
2019-05-19T17:23:28.873Z,98979.56
2019-05-19T17:25:06.945Z,98979.50
2019-05-19T17:26:42.446Z,98976.25
2019-05-19T17:28:18.728Z,98979.22
2019-05-19T17:29:54.267Z,98977.38
2019-05-19T17:31:30.512Z,98974.66
2019-05-19T17:33:06.019Z,98977.05
2019-05-19T17:34:42.359Z,98979.18
2019-05-19T17:36:17.870Z,98981.95
2019-05-19T17:37:54.141Z,98984.73
2019-05-19T17:39:29.681Z,98980.86
2019-05-19T17:41:05.997Z,98978.39
2019-05-19T17:42:42.483Z,98977.77
2019-05-19T17:44:19.023Z,98974.91
2019-05-19T17:45:54.615Z,98978.70
2019-05-19T17:47:30.863Z,98976.27
2019-05-19T17:49:06.644Z,98978.22
2019-05-19T17:50:42.909Z,98979.97
2019-05-19T17:52:19.782Z,98983.33
2019-05-19T17:53:56.215Z,98988.30
2019-05-19T17:55:34.233Z,98991.47
2019-05-19T17:57:10.743Z,98982.16
2019-05-19T17:58:47.279Z,98991.12
2019-05-19T18:00:35.655Z,98992.08
2019-05-19T18:02:11.996Z,98990.19
2019-05-19T18:03:47.513Z,98988.09
2019-05-19T18:05:23.818Z,98991.86
2019-05-19T18:06:59.324Z,98982.95
2019-05-19T18:08:35.853Z,98983.95
2019-05-19T18:10:11.379Z,98984.30
2019-05-19T18:11:47.728Z,98984.07
2019-05-19T18:13:23.291Z,98986.25
2019-05-19T18:14:59.535Z,98985.59
2019-05-19T18:16:35.303Z,98987.61
2019-05-19T18:18:11.572Z,98985.31
2019-05-19T18:19:47.113Z,98981.89
2019-05-19T18:21:23.360Z,98988.94
2019-05-19T18:22:58.948Z,98990.34
2019-05-19T18:24:35.216Z,98989.32
2019-05-19T18:26:10.748Z,98988.48
2019-05-19T18:27:47.901Z,98986.45
2019-05-19T18:29:30.970Z,98991.47
2019-05-19T18:31:01.679Z,98990.04
2019-05-19T18:32:37.463Z,98993.24
2019-05-19T18:34:13.956Z,98991.00
2019-05-19T18:35:49.479Z,98989.98
2019-05-19T18:37:25.799Z,98990.95
2019-05-19T18:39:01.308Z,98983.91
2019-05-19T18:40:37.959Z,98996.39
2019-05-19T18:42:13.516Z,98990.92
2019-05-19T18:43:49.854Z,98996.49
2019-05-19T18:45:25.345Z,98998.48
2019-05-19T18:47:01.603Z,98999.09
2019-05-19T18:48:37.399Z,99002.06
2019-05-19T18:50:14.298Z,98999.41
2019-05-19T18:51:49.823Z,98994.77
2019-05-19T18:53:26.118Z,99006.55
2019-05-19T18:55:01.627Z,99004.73
2019-05-19T18:56:37.875Z,98999.04
2019-05-19T18:58:14.358Z,98998.75
2019-05-19T18:59:50.795Z,99005.16
2019-05-19T19:01:26.373Z,99005.09
2019-05-19T19:03:02.781Z,99001.03
2019-05-19T19:04:38.280Z,99011.64
2019-05-19T19:06:14.534Z,99003.97
2019-05-19T19:07:55.132Z,99003.07
2019-05-19T19:09:33.623Z,99010.05